Time;durP1;ratioP1;P1;durP2;ratioP2;P2;SDS_P1;SDS_P2;PMS_P1;PMS_P2;Temp;Humidity;BMP_temperature;BMP_pressure;BME280_temperature;BME280_humidity;BME280_pressure;Samples;Min_cycle;Max_cycle;Signal;HPM_P1;HPM_P2
2023/12/18 00:00:14;;;;;;;;;0.00;0.00;;;;;7.72;100.00;103375.06;5040421;28;65650;-81
2023/12/18 00:02:40;;;;;;;;;0.00;0.00;;;;;7.75;100.00;103372.53;5064686;28;45347;-80
2023/12/18 00:05:07;;;;;;;;;0.00;0.00;;;;;7.73;100.00;103361.25;5079604;28;45521;-81
2023/12/18 00:07:32;;;;;;;;;0.00;0.00;;;;;7.74;100.00;103365.63;5079517;28;45406;-81
2023/12/18 00:09:57;;;;;;;;;0.00;0.00;;;;;7.68;100.00;103362.00;5059793;28;74064;-79
2023/12/18 00:12:22;;;;;;;;;0.00;0.00;;;;;7.67;100.00;103363.72;5060194;28;71146;-81
2023/12/18 00:14:48;;;;;;;;;0.00;0.00;;;;;7.63;100.00;103367.03;5078144;28;68276;-81
2023/12/18 00:17:13;;;;;;;;;0.00;0.00;;;;;7.60;100.00;103368.72;5060353;28;63694;-81
2023/12/18 00:19:38;;;;;;;;;0.00;0.00;;;;;7.55;100.00;103366.84;5078799;28;46274;-81
2023/12/18 00:22:04;;;;;;;;;0.00;0.00;;;;;7.86;100.00;103365.03;5044025;28;45666;-81
2023/12/18 00:24:29;;;;;;;;;0.00;0.00;;;;;7.79;100.00;103370.91;5077658;28;69223;-81
2023/12/18 00:26:54;;;;;;;;;15.00;15.00;;;;;7.70;100.00;103366.38;5043468;28;64388;-81
2023/12/18 00:29:20;;;;;;;;;0.00;0.00;;;;;7.66;100.00;103368.84;5078929;28;46053;-81
2023/12/18 00:31:47;;;;;;;;;0.00;0.00;;;;;7.65;100.00;103373.16;5060411;28;62067;-81
2023/12/18 00:34:13;;;;;;;;;0.00;0.00;;;;;7.60;100.00;103366.97;5078926;28;45588;-80
2023/12/18 00:36:38;;;;;;;;;1.00;0.33;;;;;7.60;100.00;103374.75;5060522;28;70739;-81
2023/12/18 00:39:05;;;;;;;;;0.00;0.00;;;;;7.57;100.00;103374.66;5059660;28;65138;-81
2023/12/18 00:41:31;;;;;;;;;1.50;1.50;;;;;7.63;100.00;103372.22;5060655;28;45433;-80
2023/12/18 00:43:56;;;;;;;;;0.00;0.00;;;;;7.48;100.00;103374.44;5060786;28;45417;-81
2023/12/18 00:46:21;;;;;;;;;0.00;0.00;;;;;7.70;100.00;103368.09;5059385;28;69084;-81
2023/12/18 00:48:47;;;;;;;;;0.00;0.00;;;;;7.73;100.00;103371.63;5041523;28;76069;-81
2023/12/18 00:51:12;;;;;;;;;3.00;3.00;;;;;7.76;100.00;103360.44;5077460;28;72599;-81
2023/12/18 00:53:37;;;;;;;;;0.00;0.00;;;;;7.59;100.00;103357.44;5078024;28;52005;-81
2023/12/18 00:56:03;;;;;;;;;0.00;0.00;;;;;7.50;100.00;103350.31;5060546;28;45423;-81
2023/12/18 00:58:28;;;;;;;;;1.00;1.00;;;;;7.46;100.00;103345.88;5059821;28;46020;-81
2023/12/18 01:00:53;;;;;;;;;0.00;0.00;;;;;7.41;100.00;103336.22;5077828;28;72651;-81
2023/12/18 01:03:19;;;;;;;;;0.00;0.00;;;;;7.41;100.00;103334.53;5077851;28;67459;-81
2023/12/18 01:05:44;;;;;;;;;0.00;0.00;;;;;7.40;100.00;103326.72;5060556;28;45460;-81
2023/12/18 01:08:09;;;;;;;;;0.00;0.00;;;;;7.41;100.00;103331.94;5076883;28;75517;-81
2023/12/18 01:10:35;;;;;;;;;0.00;0.00;;;;;7.40;100.00;103329.31;5058381;28;45464;-81
2023/12/18 01:13:00;;;;;;;;;0.00;0.00;;;;;7.39;100.00;103314.59;5059410;28;66519;-81
2023/12/18 01:15:25;;;;;;;;;2.33;2.33;;;;;7.31;100.00;103315.25;5042611;28;68994;-81
2023/12/18 01:17:51;;;;;;;;;0.00;0.00;;;;;7.30;100.00;103310.94;5043242;28;48096;-81
2023/12/18 01:20:16;;;;;;;;;0.00;0.00;;;;;7.29;100.00;103305.72;5078088;28;45337;-81
2023/12/18 01:22:41;;;;;;;;;0.00;0.00;;;;;7.31;100.00;103317.84;5076950;28;69288;-81
2023/12/18 01:25:07;;;;;;;;;0.00;0.00;;;;;7.35;100.00;103314.53;5059366;28;61276;-81
2023/12/18 01:27:32;;;;;;;;;0.00;0.00;;;;;7.38;100.00;103310.25;5078070;28;46974;-81
2023/12/18 01:29:58;;;;;;;;;0.00;0.00;;;;;7.42;100.00;103312.94;5059077;28;65520;-81
2023/12/18 01:32:23;;;;;;;;;0.00;0.00;;;;;7.47;100.00;103326.03;5078108;28;45476;-81
2023/12/18 01:34:48;;;;;;;;;1.00;1.00;;;;;7.46;100.00;103324.28;5059945;28;45568;-81
2023/12/18 01:37:14;;;;;;;;;0.00;0.00;;;;;7.41;100.00;103324.19;5058897;28;65928;-81
2023/12/18 01:39:39;;;;;;;;;0.00;0.00;;;;;7.38;100.00;103328.41;5058881;28;66006;-81
2023/12/18 01:42:05;;;;;;;;;0.00;0.00;;;;;7.38;100.00;103334.44;5078077;28;45513;-81
2023/12/18 01:44:30;;;;;;;;;0.00;0.00;;;;;7.34;100.00;103336.09;5048499;28;45654;-80
2023/12/18 01:46:56;;;;;;;;;0.00;0.00;;;;;7.30;100.00;103336.84;5077556;28;60786;-81
2023/12/18 01:49:21;;;;;;;;;0.00;0.00;;;;;7.27;100.00;103338.47;5058371;28;71809;-81
2023/12/18 01:51:47;;;;;;;;;0.00;0.00;;;;;7.26;100.00;103339.28;5041597;28;71585;-80
2023/12/18 01:54:12;;;;;;;;;0.00;0.00;;;;;7.23;100.00;103340.09;5041814;28;70628;-81
2023/12/18 01:56:38;;;;;;;;;0.00;0.00;;;;;7.26;100.00;103331.53;5058809;28;67317;-81
2023/12/18 01:59:05;;;;;;;;;3.00;3.00;;;;;7.19;100.00;103333.09;5076455;28;70963;-81
2023/12/18 02:01:30;;;;;;;;;0.00;0.00;;;;;7.17;100.00;103339.94;5059016;28;45750;-80
2023/12/18 02:03:56;;;;;;;;;0.00;0.00;;;;;7.14;100.00;103339.84;5076818;28;65305;-81
2023/12/18 02:06:22;;;;;;;;;0.75;0.75;;;;;7.11;100.00;103337.19;5059054;28;46574;-80
2023/12/18 02:08:47;;;;;;;;;3.00;3.00;;;;;7.10;100.00;103344.06;5059386;28;45286;-81
2023/12/18 02:11:13;;;;;;;;;0.00;0.00;;;;;7.11;100.00;103330.31;5077075;28;49650;-80
2023/12/18 02:13:41;;;;;;;;;3.00;3.00;;;;;7.12;100.00;103333.75;5058088;28;69810;-81
2023/12/18 02:16:07;;;;;;;;;11.00;11.00;;;;;7.12;100.00;103337.22;5077508;28;46152;-81
2023/12/18 02:18:32;;;;;;;;;0.00;0.00;;;;;7.12;100.00;103339.81;5058821;28;45473;-80
2023/12/18 02:20:57;;;;;;;;;0.00;0.00;;;;;7.13;100.00;103341.59;5058052;28;48887;-80
2023/12/18 02:23:23;;;;;;;;;0.00;0.00;;;;;7.13;100.00;103333.81;5058446;28;64229;-80
2023/12/18 02:25:48;;;;;;;;;0.00;0.00;;;;;7.13;100.00;103328.63;5058246;28;75400;-81
2023/12/18 02:28:15;;;;;;;;;0.00;0.00;;;;;7.16;100.00;103317.47;5059012;28;45313;-80
2023/12/18 02:30:41;;;;;;;;;0.00;0.00;;;;;7.20;100.00;103321.00;5059157;28;45395;-80
2023/12/18 02:33:06;;;;;;;;;0.00;0.00;;;;;7.21;100.00;103326.25;5076180;28;70126;-81
2023/12/18 02:35:31;;;;;;;;;0.00;0.00;;;;;7.19;100.00;103325.31;5058595;28;46076;-81
2023/12/18 02:37:57;;;;;;;;;0.00;0.00;;;;;7.18;100.00;103316.66;5058157;28;72069;-81
2023/12/18 02:40:25;;;;;;;;;0.00;0.00;;;;;7.22;100.00;103324.50;5076733;28;48377;-81
2023/12/18 02:42:50;;;;;;;;;0.00;0.00;;;;;7.23;100.00;103326.28;5077008;28;45425;-80
2023/12/18 02:45:15;;;;;;;;;0.00;0.00;;;;;7.23;100.00;103328.88;5075780;28;73979;-81
2023/12/18 02:47:41;;;;;;;;;0.00;0.00;;;;;7.20;100.00;103327.06;5076028;28;62286;-81
2023/12/18 02:50:06;;;;;;;;;0.00;0.00;;;;;7.24;100.00;103330.59;5075639;28;69259;-81
2023/12/18 02:52:31;;;;;;;;;0.00;0.00;;;;;7.26;100.00;103331.53;5058395;28;45451;-81
2023/12/18 02:54:57;;;;;;;;;0.00;0.00;;;;;7.28;100.00;103327.25;5040659;28;73598;-81
2023/12/18 02:57:22;;;;;;;;;4.00;4.00;;;;;7.30;100.00;103325.56;5051500;28;64013;-81
2023/12/18 02:59:47;;;;;;;;;0.00;0.00;;;;;7.30;100.00;103326.47;5063808;28;68587;-81
2023/12/18 03:02:13;;;;;;;;;0.00;0.00;;;;;7.29;100.00;103327.31;5076397;28;45504;-81
2023/12/18 03:04:43;;;;;;;;;0.00;0.00;;;;;7.31;100.00;103316.97;5058330;28;48274;-80
2023/12/18 03:07:09;;;;;;;;;0.00;0.00;;;;;7.31;100.00;103324.75;5058203;28;45429;-81
2023/12/18 03:09:34;;;;;;;;;2.25;2.25;;;;;7.28;100.00;103320.38;5076516;28;45384;-81
2023/12/18 03:12:00;;;;;;;;;0.50;0.50;;;;;7.30;100.00;103323.00;5077323;28;45379;-81
2023/12/18 03:14:25;;;;;;;;;0.00;0.00;;;;;7.26;100.00;103322.06;5074701;28;65862;-81
2023/12/18 03:16:50;;;;;;;;;0.00;0.00;;;;;7.25;100.00;103332.38;5075404;28;70474;-80
2023/12/18 03:19:16;;;;;;;;;0.00;0.00;;;;;7.22;100.00;103327.09;5056605;28;65232;-80
2023/12/18 03:21:42;;;;;;;;;0.00;0.00;;;;;7.23;100.00;103327.16;5076590;28;45443;-81
2023/12/18 03:24:07;;;;;;;;;0.00;0.00;;;;;7.25;100.00;103322.03;5057506;28;67738;-81
2023/12/18 03:26:32;;;;;;;;;0.00;0.00;;;;;7.22;100.00;103327.97;5075357;28;72620;-81
2023/12/18 03:28:58;;;;;;;;;0.00;0.00;;;;;7.18;100.00;103318.38;5040127;28;70371;-80
2023/12/18 03:31:23;;;;;;;;;0.00;0.00;;;;;7.18;100.00;103318.38;5075136;28;68244;-81
2023/12/18 03:33:48;;;;;;;;;0.00;0.00;;;;;7.14;100.00;103314.81;5074635;28;45392;-81
2023/12/18 03:36:13;;;;;;;;;0.00;0.00;;;;;7.21;100.00;103315.00;5056959;28;75458;-80
2023/12/18 03:38:39;;;;;;;;;0.00;0.00;;;;;7.23;100.00;103321.09;5040948;28;50912;-81
2023/12/18 03:41:05;;;;;;;;;0.00;0.00;;;;;7.17;100.00;103314.91;5075515;28;61148;-80
2023/12/18 03:43:30;;;;;;;;;0.00;0.00;;;;;7.20;100.00;103311.53;5057945;28;45527;-81
2023/12/18 03:45:55;;;;;;;;;0.00;0.00;;;;;7.25;100.00;103317.72;5057811;28;45448;-81
2023/12/18 03:48:21;;;;;;;;;0.00;0.00;;;;;7.29;100.00;103313.47;5056959;28;63504;-80
2023/12/18 03:50:46;;;;;;;;;0.00;0.00;;;;;7.31;100.00;103311.81;5075677;28;50859;-81
2023/12/18 03:53:12;;;;;;;;;0.00;0.00;;;;;7.33;100.00;103313.59;5074813;28;73234;-80
2023/12/18 03:55:38;;;;;;;;;0.00;0.00;;;;;7.31;100.00;103315.25;5075939;28;45423;-80
2023/12/18 03:58:03;;;;;;;;;0.00;0.00;;;;;7.29;100.00;103318.66;5064075;28;45391;-80
2023/12/18 04:00:29;;;;;;;;;0.00;0.00;;;;;7.27;100.00;103322.94;5067984;28;45590;-81
2023/12/18 04:02:54;;;;;;;;;0.00;0.00;;;;;7.24;100.00;103331.47;5074896;28;62063;-81
2023/12/18 04:05:19;;;;;;;;;0.00;0.00;;;;;7.24;100.00;103328.03;5075925;28;45418;-81
2023/12/18 04:07:45;;;;;;;;;0.00;0.00;;;;;7.25;100.00;103316.84;5057640;28;45445;-81
2023/12/18 04:10:11;;;;;;;;;0.00;0.00;;;;;7.28;100.00;103325.56;5057567;28;45965;-80
2023/12/18 04:12:37;;;;;;;;;0.00;0.00;;;;;7.32;100.00;103326.53;5075776;28;46164;-81
2023/12/18 04:15:03;;;;;;;;;0.00;0.00;;;;;7.29;100.00;103316.94;5057241;28;45469;-81
2023/12/18 04:17:28;;;;;;;;;0.00;0.00;;;;;7.32;100.00;103314.44;5057530;28;45405;-81
2023/12/18 04:19:54;;;;;;;;;0.00;0.00;;;;;7.30;100.00;103310.03;5055843;28;69817;-81
2023/12/18 04:22:19;;;;;;;;;0.00;0.00;;;;;7.28;100.00;103317.78;5039848;28;69618;-81
2023/12/18 04:24:44;;;;;;;;;0.00;0.00;;;;;7.28;100.00;103319.47;5039598;28;74991;-80
2023/12/18 04:27:10;;;;;;;;;0.00;0.00;;;;;7.25;100.00;103314.25;5039483;28;69189;-81
2023/12/18 04:29:35;;;;;;;;;0.00;0.00;;;;;7.26;100.00;103310.81;5074971;28;63947;-81
2023/12/18 04:32:00;;;;;;;;;0.00;0.00;;;;;7.20;100.00;103314.09;5056124;28;69696;-80
2023/12/18 04:34:26;;;;;;;;;0.00;0.00;;;;;7.17;100.00;103314.91;5056962;28;45520;-81
2023/12/18 04:36:51;;;;;;;;;0.00;0.00;;;;;7.16;100.00;103317.47;5056948;28;59523;-80
2023/12/18 04:39:16;;;;;;;;;0.00;0.00;;;;;7.16;100.00;103317.47;5057424;28;45431;-80
2023/12/18 04:41:43;;;;;;;;;0.00;0.00;;;;;7.14;100.00;103320.00;5074365;28;75220;-81
2023/12/18 04:44:08;;;;;;;;;0.00;0.00;;;;;7.14;100.00;103319.13;5075958;28;45241;-81
2023/12/18 04:46:35;;;;;;;;;0.00;0.00;;;;;7.14;100.00;103316.53;5077496;28;65716;-81
2023/12/18 04:49:00;;;;;;;;;0.00;0.00;;;;;7.10;100.00;103327.66;5060791;28;45484;-81
2023/12/18 04:51:25;;;;;;;;;0.00;0.00;;;;;7.06;100.00;103318.06;5060472;28;49574;-81
2023/12/18 04:53:51;;;;;;;;;18.00;18.00;;;;;7.06;100.00;103318.94;5077840;28;70079;-81
2023/12/18 04:56:16;;;;;;;;;0.00;0.00;;;;;7.11;100.00;103314.75;5042721;28;64961;-81
2023/12/18 04:58:41;;;;;;;;;0.00;0.00;;;;;7.12;100.00;103318.22;5042750;28;66714;-81
2023/12/18 05:01:09;;;;;;;;;0.00;0.00;;;;;7.10;100.00;103320.75;5077315;28;73973;-80
2023/12/18 05:03:34;;;;;;;;;0.00;0.00;;;;;7.06;100.00;103316.34;5060482;28;45277;-81
2023/12/18 05:06:00;;;;;;;;;0.67;0.67;;;;;7.00;100.00;103317.88;5059315;28;69135;-80
2023/12/18 05:08:25;;;;;;;;;0.00;0.00;;;;;6.93;100.00;103314.25;5078487;28;45424;-81
2023/12/18 05:10:50;;;;;;;;;0.00;0.00;;;;;6.93;100.00;103320.31;5059445;28;60002;-81
2023/12/18 05:13:16;;;;;;;;;0.00;0.00;;;;;6.91;100.00;103311.63;5059290;28;70606;-80
2023/12/18 05:15:41;;;;;;;;;10.00;10.00;;;;;6.92;100.00;103302.13;5077067;28;62974;-81
2023/12/18 05:18:06;;;;;;;;;0.00;0.00;;;;;6.89;100.00;103297.75;5059493;28;56398;-80
2023/12/18 05:20:32;;;;;;;;;0.00;0.00;;;;;6.92;100.00;103299.53;5058911;28;75209;-80
2023/12/18 05:22:57;;;;;;;;;0.00;0.00;;;;;6.94;100.00;103308.22;5059235;28;73115;-80
2023/12/18 05:25:22;;;;;;;;;0.00;0.00;;;;;6.93;100.00;103301.31;5058965;28;68704;-81
2023/12/18 05:27:48;;;;;;;;;1.00;1.00;;;;;6.92;100.00;103302.13;5078264;28;45567;-80
2023/12/18 05:30:13;;;;;;;;;0.00;0.00;;;;;6.93;100.00;103302.19;5077719;28;47999;-80
2023/12/18 05:32:38;;;;;;;;;0.00;0.00;;;;;6.91;100.00;103309.03;5059783;28;53758;-81
2023/12/18 05:35:04;;;;;;;;;0.00;0.00;;;;;6.91;100.00;103314.22;5077205;28;63000;-80
2023/12/18 05:37:29;;;;;;;;;1.75;1.75;;;;;6.94;100.00;103313.41;5060014;28;45550;-81
2023/12/18 05:39:55;;;;;;;;;0.00;0.00;;;;;6.91;100.00;103315.91;5077351;28;69992;-81
2023/12/18 05:42:20;;;;;;;;;0.00;0.00;;;;;6.90;100.00;103316.75;5059270;28;68211;-81
2023/12/18 05:44:45;;;;;;;;;0.00;0.00;;;;;6.91;100.00;103321.09;5058483;28;66469;-80
2023/12/18 05:47:11;;;;;;;;;0.00;0.00;;;;;6.87;100.00;103312.38;5059536;28;56576;-80
2023/12/18 05:49:39;;;;;;;;;0.00;0.00;;;;;6.85;100.00;103307.97;5077192;28;64147;-80
2023/12/18 05:52:05;;;;;;;;;0.50;0.50;;;;;6.81;100.00;103301.84;5077394;28;63008;-80
2023/12/18 05:54:30;;;;;;;;;0.00;0.00;;;;;6.81;100.00;103296.66;5077858;28;45302;-81
2023/12/18 05:56:56;;;;;;;;;0.00;0.00;;;;;6.84;100.00;103298.47;5077034;28;45292;-80
2023/12/18 05:59:21;;;;;;;;;0.00;0.00;;;;;6.83;100.00;103301.88;5077562;28;69090;-81
2023/12/18 06:01:46;;;;;;;;;0.00;0.00;;;;;6.86;100.00;103305.44;5076641;28;45363;-80
2023/12/18 06:04:12;;;;;;;;;0.00;0.00;;;;;6.88;100.00;103298.59;5058946;28;61396;-80
2023/12/18 06:06:37;;;;;;;;;0.00;0.00;;;;;6.88;100.00;103303.75;5076204;28;68801;-80
2023/12/18 06:09:03;;;;;;;;;0.00;0.00;;;;;6.84;100.00;103307.13;5042258;28;46232;-81
2023/12/18 06:11:29;;;;;;;;;0.00;0.00;;;;;6.82;100.00;103300.16;5026050;28;45923;-81
2023/12/18 06:13:54;;;;;;;;;0.00;0.00;;;;;6.82;100.00;103303.59;5058500;28;45430;-81
2023/12/18 06:16:19;;;;;;;;;0.00;0.00;;;;;6.85;100.00;103310.56;5076668;28;63449;-81
2023/12/18 06:18:45;;;;;;;;;0.00;0.00;;;;;6.85;100.00;103306.25;5058766;28;45575;-81
2023/12/18 06:21:10;;;;;;;;;0.00;0.00;;;;;6.87;100.00;103309.78;5076943;28;45430;-81
2023/12/18 06:23:35;;;;;;;;;24.67;24.67;;;;;6.85;100.00;103314.03;5075524;28;65900;-81
2023/12/18 06:26:01;;;;;;;;;0.00;0.00;;;;;6.85;100.00;103310.56;5045471;28;45330;-81
2023/12/18 06:28:26;;;;;;;;;0.00;0.00;;;;;6.87;100.00;103316.66;5043754;28;45952;-80
2023/12/18 06:30:51;;;;;;;;;0.00;0.00;;;;;6.88;100.00;103318.44;5076748;28;45471;-80
2023/12/18 06:33:17;;;;;;;;;0.00;0.00;;;;;6.85;100.00;103313.16;5076176;28;49455;-80
2023/12/18 06:35:42;;;;;;;;;0.00;0.00;;;;;6.83;100.00;103322.59;5058981;28;45404;-80
2023/12/18 06:38:08;;;;;;;;;0.00;0.00;;;;;6.82;100.00;103318.28;5058755;28;47299;-80
2023/12/18 06:40:33;;;;;;;;;0.00;0.00;;;;;6.84;100.00;103325.22;5075523;28;45463;-82
2023/12/18 06:42:58;;;;;;;;;0.00;0.00;;;;;6.82;100.00;103311.38;5057973;28;45499;-82
2023/12/18 06:45:24;;;;;;;;;0.00;0.00;;;;;6.81;100.00;103313.91;5057852;28;60245;-81
2023/12/18 06:47:49;;;;;;;;;0.00;0.00;;;;;6.82;100.00;103319.13;5057857;28;69766;-83
2023/12/18 06:50:14;;;;;;;;;0.00;0.00;;;;;6.85;100.00;103320.91;5073161;28;54733;-84
2023/12/18 06:52:48;;;;;;;;;0.00;0.00;;;;;6.84;100.00;103314.00;5058871;28;45318;-85
2023/12/18 06:55:14;;;;;;;;;0.00;0.00;;;;;6.81;100.00;103326.84;5059871;28;45524;-85
2023/12/18 06:57:39;;;;;;;;;0.00;0.00;;;;;6.76;100.00;103332.78;5057970;28;45395;-82
2023/12/18 07:00:05;;;;;;;;;1.00;1.00;;;;;6.73;100.00;103324.06;5076177;28;63040;-84
2023/12/18 07:02:30;;;;;;;;;0.00;0.00;;;;;6.77;100.00;103334.53;5059143;28;45346;-83
2023/12/18 07:04:56;;;;;;;;;0.00;0.00;;;;;6.75;100.00;103331.03;5041219;28;65348;-83
2023/12/18 07:07:22;;;;;;;;;12.00;12.00;;;;;6.75;100.00;103335.31;5053437;28;45391;-81
2023/12/18 07:09:47;;;;;;;;;0.00;0.00;;;;;6.73;100.00;103344.75;5048210;28;45457;-81
2023/12/18 07:12:12;;;;;;;;;0.00;0.00;;;;;6.69;100.00;103340.34;5075425;28;68434;-81
2023/12/18 07:14:38;;;;;;;;;0.00;0.00;;;;;6.70;100.00;103342.06;5057930;28;59168;-80
2023/12/18 07:17:04;;;;;;;;;0.00;0.00;;;;;6.65;100.00;103341.97;5064885;28;73927;-82
2023/12/18 07:19:29;;;;;;;;;0.00;0.00;;;;;6.68;100.00;103349.78;5043911;28;45440;-81
2023/12/18 07:21:54;;;;;;;;;0.00;0.00;;;;;6.71;100.00;103354.19;5065152;28;62411;-81
2023/12/18 07:24:20;;;;;;;;;0.00;0.00;;;;;6.73;100.00;103358.56;5056540;28;66854;-82
2023/12/18 07:26:45;;;;;;;;;0.00;0.00;;;;;6.72;100.00;103350.75;5075319;28;64203;-82
2023/12/18 07:29:10;;;;;;;;;3.00;3.00;;;;;6.68;100.00;103357.56;5040578;28;69937;-82
2023/12/18 07:31:36;;;;;;;;;0.00;0.00;;;;;6.57;100.00;103354.69;5040620;28;70833;-83
2023/12/18 07:34:01;;;;;;;;;0.00;0.00;;;;;6.53;100.00;103365.75;5041556;28;45453;-82
2023/12/18 07:36:26;;;;;;;;;0.00;0.00;;;;;6.45;100.00;103362.06;5075797;28;57073;-83
2023/12/18 07:38:52;;;;;;;;;2.67;1.00;;;;;6.40;100.00;103366.22;5070355;28;63516;-83
2023/12/18 07:41:18;;;;;;;;;0.00;0.00;;;;;6.37;100.00;103360.94;5036731;28;71064;-82
2023/12/18 07:43:43;;;;;;;;;5.50;4.50;;;;;6.37;100.00;103364.44;5057089;28;45382;-80
2023/12/18 07:46:18;;;;;;;;;2.25;2.25;;;;;6.35;100.00;103370.34;5053060;28;47788;-82
2023/12/18 07:48:46;;;;;;;;;0.00;0.00;;;;;6.30;100.00;103369.38;5021643;28;45788;-84
2023/12/18 07:51:11;;;;;;;;;0.00;0.00;;;;;6.28;100.00;103365.81;5038239;28;45337;-82
2023/12/18 07:53:37;;;;;;;;;0.25;0.25;;;;;6.24;100.00;103367.47;5020494;28;62394;-81
2023/12/18 07:56:02;;;;;;;;;0.00;0.00;;;;;6.23;100.00;103364.81;5035091;28;75539;-84
2023/12/18 07:58:28;;;;;;;;;0.00;0.00;;;;;6.24;100.00;103372.66;5057425;28;45325;-80
2023/12/18 08:00:53;;;;;;;;;0.00;0.00;;;;;6.20;100.00;103374.25;5075039;28;67450;-81
2023/12/18 08:03:18;;;;;;;;;0.00;0.00;;;;;6.16;100.00;103374.09;5056115;28;67216;-80
2023/12/18 08:05:43;;;;;;;;;0.00;0.00;;;;;6.12;100.00;103373.13;5056023;28;72141;-80
2023/12/18 08:08:09;;;;;;;;;0.00;0.00;;;;;6.09;100.00;103375.63;5072341;28;47911;-81
2023/12/18 08:10:34;;;;;;;;;6.67;6.67;;;;;6.12;100.00;103373.13;5051239;28;55809;-80
2023/12/18 08:12:59;;;;;;;;;0.00;0.00;;;;;6.10;100.00;103377.38;5053822;28;45365;-81
2023/12/18 08:15:25;;;;;;;;;0.00;0.00;;;;;6.10;100.00;103376.50;5067049;27;49521;-81
2023/12/18 08:17:50;;;;;;;;;1.00;1.00;;;;;6.09;100.00;103380.78;5073018;28;71244;-80
2023/12/18 08:20:16;;;;;;;;;0.00;0.00;;;;;6.09;100.00;103375.63;5034726;28;45551;-81
2023/12/18 08:22:41;;;;;;;;;0.00;0.00;;;;;6.04;100.00;103361.66;5075334;28;45436;-81
2023/12/18 08:25:07;;;;;;;;;0.00;0.00;;;;;6.04;100.00;103372.00;5059643;28;55738;-79
2023/12/18 08:27:33;;;;;;;;;0.00;0.00;;;;;6.03;100.00;103359.88;5060090;28;45456;-81
2023/12/18 08:29:59;;;;;;;;;0.00;0.00;;;;;6.00;100.00;103368.44;5060386;28;45482;-81
2023/12/18 08:32:24;;;;;;;;;0.50;0.50;;;;;5.96;100.00;103364.00;5060000;28;53138;-81
2023/12/18 08:34:50;;;;;;;;;0.00;0.00;;;;;5.94;100.00;103360.47;5058708;28;56969;-80
2023/12/18 08:37:15;;;;;;;;;0.00;0.00;;;;;5.99;100.00;103363.22;5060552;28;45459;-81
2023/12/18 08:39:41;;;;;;;;;0.00;0.00;;;;;5.95;100.00;103357.06;5058677;28;45409;-80
2023/12/18 08:42:06;;;;;;;;;0.00;0.00;;;;;5.95;100.00;103356.16;5078372;28;45329;-80
2023/12/18 08:44:32;;;;;;;;;0.00;0.00;;;;;5.96;100.00;103353.66;5078297;28;45384;-81
2023/12/18 08:46:58;;;;;;;;;0.00;0.00;;;;;5.95;100.00;103361.34;5077831;28;45320;-81
2023/12/18 08:49:23;;;;;;;;;0.00;0.00;;;;;5.95;100.00;103357.06;5060418;28;45448;-81
2023/12/18 08:51:49;;;;;;;;;0.00;0.00;;;;;5.92;100.00;103359.50;5077587;28;45331;-80
2023/12/18 08:54:14;;;;;;;;;0.00;0.00;;;;;5.86;100.00;103359.31;5076988;28;62916;-81
2023/12/18 08:56:39;;;;;;;;;0.00;0.00;;;;;5.85;100.00;103359.25;5077290;28;73105;-81
2023/12/18 08:59:05;;;;;;;;;3.33;3.33;;;;;5.80;100.00;103367.75;5076835;28;69258;-81
2023/12/18 09:01:30;;;;;;;;;0.00;0.00;;;;;5.78;100.00;103366.81;5042981;28;45390;-80
2023/12/18 09:03:55;;;;;;;;;0.00;0.00;;;;;5.74;100.00;103364.97;5068155;28;47425;-80
2023/12/18 09:06:21;;;;;;;;;0.00;0.00;;;;;5.73;100.00;103364.91;5055821;28;45615;-81
2023/12/18 09:08:46;;;;;;;;;0.00;0.00;;;;;5.80;100.00;103356.53;5077290;28;45441;-81
2023/12/18 09:11:11;;;;;;;;;0.00;0.00;;;;;5.79;100.00;103353.09;5056691;28;65879;-79
2023/12/18 09:13:37;;;;;;;;;0.00;0.00;;;;;5.82;100.00;103355.75;5059273;28;68371;-79
2023/12/18 09:16:04;;;;;;;;;0.00;0.00;;;;;5.81;100.00;103351.44;5060107;28;45447;-80
2023/12/18 09:18:29;;;;;;;;;0.00;0.00;;;;;5.85;100.00;103361.84;5078331;28;45321;-80
2023/12/18 09:20:54;;;;;;;;;0.00;0.00;;;;;5.82;100.00;103354.88;5059693;28;50576;-80
2023/12/18 09:23:19;;;;;;;;;0.00;0.00;;;;;5.74;100.00;103353.72;5076536;28;74835;-79
2023/12/18 09:25:45;;;;;;;;;0.00;0.00;;;;;5.75;100.00;103358.97;5077145;28;74056;-80
2023/12/18 09:28:10;;;;;;;;;0.00;0.00;;;;;5.79;100.00;103359.94;5076772;28;67114;-80
2023/12/18 09:30:35;;;;;;;;;0.00;0.00;;;;;5.84;100.00;103365.28;5041522;28;57098;-81
2023/12/18 09:33:01;;;;;;;;;0.75;0.75;;;;;5.89;100.00;103364.59;5077035;28;46200;-81
2023/12/18 09:35:26;;;;;;;;;0.00;0.00;;;;;5.90;100.00;103360.28;5057860;28;56895;-80
2023/12/18 09:37:51;;;;;;;;;0.00;0.00;;;;;5.92;100.00;103356.91;5059545;28;45598;-81
2023/12/18 09:40:17;;;;;;;;;0.00;0.00;;;;;5.94;100.00;103349.22;5077730;28;45450;-81
2023/12/18 09:42:51;;;;;;;;;0.00;0.00;;;;;5.98;100.00;103362.34;5076834;28;75562;-81
2023/12/18 09:45:17;;;;;;;;;0.00;0.00;;;;;5.95;100.00;103363.91;5076828;28;45464;-81
2023/12/18 09:47:42;;;;;;;;;1.00;1.00;;;;;5.85;100.00;103361.84;5058164;28;60346;-81
2023/12/18 09:50:09;;;;;;;;;0.00;0.00;;;;;5.82;100.00;103365.22;5042503;28;45350;-81
2023/12/18 09:52:38;;;;;;;;;0.00;0.00;;;;;5.83;100.00;103364.38;5077756;28;47027;-81
2023/12/18 09:55:04;;;;;;;;;0.00;0.00;;;;;5.81;100.00;103369.53;5058909;28;45524;-81
2023/12/18 09:57:31;;;;;;;;;0.00;0.00;;;;;5.86;100.00;103372.25;5077374;28;45407;-81
2023/12/18 09:59:57;;;;;;;;;0.00;0.00;;;;;5.90;100.00;103373.22;5058324;28;45611;-81
2023/12/18 10:02:23;;;;;;;;;0.00;0.00;;;;;5.93;100.00;103370.75;5059433;28;45574;-81
2023/12/18 10:04:49;;;;;;;;;0.00;0.00;;;;;5.90;100.00;103374.09;5057788;28;73260;-81
2023/12/18 10:07:14;;;;;;;;;1.00;1.00;;;;;5.88;100.00;103375.75;5077631;28;45327;-81
2023/12/18 10:09:39;;;;;;;;;0.00;0.00;;;;;5.92;100.00;103374.16;5041414;28;67410;-81
2023/12/18 10:12:06;;;;;;;;;0.00;0.00;;;;;5.94;100.00;103370.81;5076379;28;56116;-81
2023/12/18 10:14:31;;;;;;;;;0.00;0.00;;;;;5.89;100.00;103366.28;5061602;28;45512;-82
2023/12/18 10:16:56;;;;;;;;;0.00;0.00;;;;;5.86;100.00;103361.03;5059229;28;45392;-81
2023/12/18 10:19:24;;;;;;;;;0.00;0.00;;;;;5.89;100.00;103356.84;5057221;28;72329;-81
2023/12/18 10:21:49;;;;;;;;;0.00;0.00;;;;;5.91;100.00;103352.59;5043546;28;45569;-81
2023/12/18 10:24:15;;;;;;;;;0.00;0.00;;;;;5.91;100.00;103349.16;5059333;28;45444;-81
2023/12/18 10:26:41;;;;;;;;;0.00;0.00;;;;;5.91;100.00;103354.31;5077053;28;45401;-81
2023/12/18 10:29:07;;;;;;;;;0.00;0.00;;;;;5.92;100.00;103354.34;5077247;28;45379;-81
2023/12/18 10:31:33;;;;;;;;;1.00;1.00;;;;;5.93;100.00;103358.69;5076761;28;45318;-81
2023/12/18 10:33:59;;;;;;;;;0.00;0.00;;;;;5.92;100.00;103353.47;5072478;28;45343;-81
2023/12/18 10:36:25;;;;;;;;;0.00;0.00;;;;;5.90;100.00;103349.97;5053963;28;45465;-81
2023/12/18 10:38:50;;;;;;;;;1.00;1.00;;;;;5.79;100.00;103355.69;5058954;28;45435;-81
2023/12/18 10:41:19;;;;;;;;;0.00;0.00;;;;;5.88;100.00;103361.97;5076560;28;46939;-81
2023/12/18 10:43:46;;;;;;;;;0.00;0.00;;;;;5.88;100.00;103359.38;5075965;28;45352;-81
2023/12/18 10:46:11;;;;;;;;;0.00;0.00;;;;;5.87;100.00;103358.50;5077249;28;45532;-81
2023/12/18 10:48:37;;;;;;;;;0.00;0.00;;;;;5.86;100.00;103359.31;5057098;28;62384;-81
2023/12/18 10:51:03;;;;;;;;;0.00;0.00;;;;;5.82;100.00;103355.75;5057715;28;45996;-80
2023/12/18 10:53:29;;;;;;;;;16.00;16.00;;;;;5.78;100.00;103353.03;5058482;28;45331;-81
2023/12/18 10:55:56;;;;;;;;;0.00;0.00;;;;;5.77;100.00;103356.44;5058201;28;45633;-82
2023/12/18 10:58:21;;;;;;;;;0.00;0.00;;;;;5.80;100.00;103362.59;5076785;28;45522;-81
2023/12/18 11:00:48;;;;;;;;;0.00;0.00;;;;;5.80;100.00;103362.59;5058407;28;47094;-81
2023/12/18 11:03:16;;;;;;;;;0.00;0.00;;;;;5.77;100.00;103359.00;5074063;28;45447;-80
2023/12/18 11:05:42;;;;;;;;;0.00;0.00;;;;;5.79;100.00;103360.84;5058286;28;45398;-80
2023/12/18 11:08:07;;;;;;;;;0.00;0.00;;;;;5.81;100.00;103360.88;5058648;28;45645;-80
2023/12/18 11:10:33;;;;;;;;;0.00;0.00;;;;;5.88;100.00;103367.13;5076052;28;45570;-79
2023/12/18 11:13:25;;;;;;;;;0.00;0.00;;;;;5.84;100.00;103367.88;5041736;28;45354;-81
2023/12/18 11:16:18;;;;;;;;;0.00;0.00;;;;;5.87;100.00;103368.84;5058592;28;45293;-82